createdAt,value
2022-08-27T00:00:44.585Z,56.97
2022-08-27T00:03:50.590Z,57.26
2022-08-27T00:07:00.402Z,57.54
2022-08-27T00:10:10.652Z,57.52
2022-08-27T00:13:18.448Z,57.54
2022-08-27T00:16:24.808Z,57.61
2022-08-27T00:19:31.851Z,57.89
2022-08-27T00:22:41.627Z,58.19
2022-08-27T00:25:49.455Z,58.34
2022-08-27T00:28:56.025Z,58.32
2022-08-27T00:32:03.617Z,58.36
2022-08-27T00:35:11.146Z,58.19
2022-08-27T00:38:21.667Z,58.31
2022-08-27T00:41:28.365Z,58.15
2022-08-27T00:44:35.774Z,58.21
2022-08-27T00:47:49.991Z,58.06
2022-08-27T00:51:03.100Z,57.94
2022-08-27T00:54:16.084Z,57.92
2022-08-27T00:57:25.801Z,58.21
2022-08-27T01:00:31.947Z,58.28
2022-08-27T01:03:39.617Z,58.28
2022-08-27T01:06:45.504Z,58.16
2022-08-27T01:09:56.713Z,57.91
2022-08-27T01:13:03.370Z,57.83
2022-08-27T01:16:12.426Z,57.85
2022-08-27T01:19:25.015Z,57.66
2022-08-27T01:22:39.504Z,57.98
2022-08-27T01:25:49.012Z,57.85
2022-08-27T01:28:56.745Z,57.90
2022-08-27T01:32:10.387Z,57.72
2022-08-27T01:35:18.285Z,57.68
2022-08-27T01:38:30.788Z,57.81
2022-08-27T01:41:41.190Z,57.77
2022-08-27T01:44:50.131Z,57.78
2022-08-27T01:47:57.408Z,57.68
2022-08-27T01:51:03.525Z,57.85
2022-08-27T01:54:11.146Z,57.74
2022-08-27T01:57:24.062Z,57.60
2022-08-27T02:00:35.022Z,57.75
2022-08-27T02:03:43.103Z,57.81
2022-08-27T02:06:50.087Z,57.84
2022-08-27T02:09:56.560Z,57.99
2022-08-27T02:13:07.282Z,58.16
2022-08-27T02:16:13.534Z,58.19
2022-08-27T02:19:21.765Z,58.21
2022-08-27T02:22:28.052Z,58.19
2022-08-27T02:25:35.171Z,58.36
2022-08-27T02:28:44.012Z,58.50
2022-08-27T02:31:50.985Z,58.66
2022-08-27T02:34:57.106Z,59.03
2022-08-27T02:38:06.145Z,59.06
2022-08-27T02:41:12.103Z,59.48
2022-08-27T02:44:21.673Z,59.16
2022-08-27T02:47:27.805Z,59.40
2022-08-27T02:50:35.918Z,59.75
2022-08-27T02:53:44.540Z,59.82
2022-08-27T02:56:53.215Z,59.97
2022-08-27T03:00:03.133Z,60.03
2022-08-27T03:03:10.883Z,60.34
2022-08-27T03:06:17.314Z,60.33
2022-08-27T03:09:24.708Z,60.36
2022-08-27T03:12:30.640Z,60.45
2022-08-27T03:15:40.361Z,60.59
2022-08-27T03:18:46.261Z,60.59
2022-08-27T03:21:54.655Z,60.50
2022-08-27T03:25:01.210Z,60.70
2022-08-27T03:28:22.561Z,60.67
2022-08-27T03:31:32.342Z,60.75
2022-08-27T03:34:39.222Z,61.07
2022-08-27T03:37:45.345Z,61.13
2022-08-27T03:40:52.622Z,61.27
2022-08-27T03:43:58.727Z,61.17
2022-08-27T03:47:09.704Z,61.06
2022-08-27T03:50:15.843Z,61.10
2022-08-27T03:53:23.558Z,61.55
2022-08-27T03:56:29.442Z,61.63
2022-08-27T03:59:36.718Z,61.74
2022-08-27T04:02:46.581Z,61.75
2022-08-27T04:05:56.830Z,61.66
2022-08-27T04:09:03.408Z,61.81
2022-08-27T04:12:11.980Z,61.85
2022-08-27T04:15:17.915Z,61.70
2022-08-27T04:18:27.654Z,61.67
2022-08-27T04:21:34.069Z,61.53
2022-08-27T04:24:41.274Z,60.95
2022-08-27T04:27:48.302Z,60.92
2022-08-27T04:30:55.085Z,61.08
2022-08-27T04:34:05.214Z,60.94
2022-08-27T04:37:11.978Z,61.09
2022-08-27T04:40:17.985Z,60.90
2022-08-27T04:43:25.331Z,61.03
2022-08-27T04:46:33.383Z,60.80
2022-08-27T04:49:43.761Z,60.86
2022-08-27T04:52:49.871Z,60.69
2022-08-27T04:55:59.378Z,60.78
2022-08-27T04:59:10.226Z,60.69
2022-08-27T05:02:17.842Z,60.61
2022-08-27T05:05:26.672Z,60.67
2022-08-27T05:08:34.246Z,60.48
2022-08-27T05:11:42.279Z,60.09
2022-08-27T05:14:49.076Z,59.84
2022-08-27T05:17:55.186Z,59.61
2022-08-27T05:21:06.187Z,59.42
2022-08-27T05:24:12.594Z,59.38
2022-08-27T05:27:19.619Z,59.39
2022-08-27T05:30:25.779Z,59.24
2022-08-27T05:33:33.518Z,58.87
2022-08-27T05:36:49.133Z,58.51
2022-08-27T05:39:56.527Z,58.38
2022-08-27T05:43:03.111Z,58.14
2022-08-27T05:46:12.320Z,57.75
2022-08-27T05:49:18.713Z,57.83
2022-08-27T05:52:29.054Z,57.63
2022-08-27T05:55:40.389Z,57.65
2022-08-27T05:59:03.359Z,57.75
2022-08-27T06:02:09.710Z,56.95
2022-08-27T06:05:16.855Z,56.74
2022-08-27T06:08:26.221Z,56.51
2022-08-27T06:11:33.057Z,56.40
2022-08-27T06:14:39.805Z,55.93
2022-08-27T06:17:46.508Z,56.03
2022-08-27T06:20:52.637Z,56.13
2022-08-27T06:24:03.368Z,56.08
2022-08-27T06:27:09.610Z,56.26
2022-08-27T06:30:17.662Z,55.99
2022-08-27T06:33:23.959Z,56.11
2022-08-27T06:36:32.762Z,56.10
2022-08-27T06:39:42.467Z,56.12
2022-08-27T06:42:50.016Z,55.95
2022-08-27T06:45:56.710Z,56.05
2022-08-27T06:49:06.470Z,55.68
2022-08-27T06:52:12.801Z,55.62
2022-08-27T06:55:22.545Z,55.25
2022-08-27T06:58:28.385Z,55.04
2022-08-27T07:01:37.775Z,54.99
2022-08-27T07:04:43.718Z,55.28
2022-08-27T07:07:50.826Z,55.29
2022-08-27T07:11:03.132Z,55.26
2022-08-27T07:14:11.836Z,55.58
2022-08-27T07:17:17.768Z,54.93
2022-08-27T07:20:25.589Z,54.77
2022-08-27T07:23:31.454Z,55.14
2022-08-27T07:26:44.600Z,55.03
2022-08-27T07:29:50.849Z,55.01
2022-08-27T07:32:57.691Z,55.27
2022-08-27T07:36:04.192Z,55.06
2022-08-27T07:39:14.119Z,54.83
2022-08-27T07:42:53.486Z,55.07
2022-08-27T07:46:05.126Z,54.97
2022-08-27T07:49:11.311Z,54.89
2022-08-27T07:52:18.667Z,54.20
2022-08-27T07:55:24.504Z,54.37
2022-08-27T07:58:34.054Z,54.68
2022-08-27T08:01:42.796Z,54.87
2022-08-27T08:04:49.932Z,54.96
2022-08-27T08:07:56.096Z,55.48
2022-08-27T08:11:04.014Z,55.68
2022-08-27T08:14:12.790Z,55.76
2022-08-27T08:17:19.545Z,56.06
2022-08-27T08:20:54.315Z,56.02
2022-08-27T08:23:52.473Z,56.19
2022-08-27T08:26:58.345Z,56.65
2022-08-27T08:30:10.499Z,56.85
2022-08-27T08:33:17.411Z,57.01
2022-08-27T08:36:24.179Z,56.51
2022-08-27T08:39:30.108Z,56.60
2022-08-27T08:42:50.557Z,56.76
2022-08-27T08:46:08.092Z,56.81
2022-08-27T08:49:24.648Z,56.47
2022-08-27T08:52:42.975Z,56.70
2022-08-27T08:55:54.818Z,56.19
2022-08-27T08:59:06.208Z,55.92
2022-08-27T09:02:18.434Z,55.90
2022-08-27T09:05:27.469Z,55.71
2022-08-27T09:08:41.386Z,55.83
2022-08-27T09:11:56.401Z,56.06
2022-08-27T09:15:09.354Z,56.25
2022-08-27T09:18:21.686Z,56.51
2022-08-27T09:21:39.328Z,56.40
2022-08-27T09:24:56.184Z,56.22
2022-08-27T09:28:27.668Z,56.72
2022-08-27T09:31:41.111Z,57.39
2022-08-27T09:34:52.287Z,57.19
2022-08-27T09:38:00.093Z,56.98
2022-08-27T09:41:11.499Z,57.23
2022-08-27T09:44:23.064Z,56.90
2022-08-27T09:47:30.461Z,57.24
2022-08-27T09:50:43.837Z,57.55
2022-08-27T09:53:54.924Z,57.41
2022-08-27T09:57:01.143Z,57.25
2022-08-27T10:00:12.660Z,56.78
2022-08-27T10:03:18.875Z,57.51
2022-08-27T10:06:34.113Z,57.25
2022-08-27T10:09:50.862Z,56.88
2022-08-27T10:13:10.599Z,56.12
2022-08-27T10:16:39.726Z,55.84
2022-08-27T10:19:58.226Z,55.92
2022-08-27T10:23:21.171Z,56.52
2022-08-27T10:26:33.684Z,57.11
2022-08-27T10:29:50.395Z,57.46
2022-08-27T10:33:07.628Z,57.45
2022-08-27T10:36:29.702Z,57.10
2022-08-27T10:39:53.076Z,55.69
2022-08-27T10:43:14.319Z,56.39
2022-08-27T10:46:50.552Z,55.26
2022-08-27T10:50:13.385Z,55.93
2022-08-27T10:54:06.010Z,55.79
2022-08-27T10:57:53.194Z,56.23
2022-08-27T11:00:51.598Z,53.20
2022-08-27T11:04:03.511Z,52.29
2022-08-27T11:07:17.848Z,52.93
2022-08-27T11:10:28.473Z,53.43
2022-08-27T11:13:41.464Z,53.25
2022-08-27T11:16:53.002Z,53.07
2022-08-27T11:20:07.024Z,53.11
2022-08-27T11:23:18.393Z,52.66
2022-08-27T11:26:25.117Z,50.86
2022-08-27T11:29:38.190Z,49.45
2022-08-27T11:32:58.163Z,50.15
2022-08-27T11:36:33.625Z,47.96
2022-08-27T11:39:55.009Z,48.26
2022-08-27T11:43:07.453Z,48.22
2022-08-27T11:46:26.558Z,47.22
2022-08-27T11:49:46.814Z,48.59
2022-08-27T11:53:12.931Z,48.57
2022-08-27T11:56:24.363Z,47.85
2022-08-27T11:59:36.930Z,47.84
2022-08-27T12:02:46.060Z,47.74
2022-08-27T12:06:11.738Z,47.57
2022-08-27T12:09:20.750Z,48.75
2022-08-27T12:12:37.497Z,48.51
2022-08-27T12:16:03.463Z,48.34
2022-08-27T12:19:25.966Z,47.63
2022-08-27T12:23:04.637Z,47.39
2022-08-27T12:26:35.722Z,46.45
2022-08-27T12:29:44.832Z,47.32
2022-08-27T12:32:54.697Z,46.80
2022-08-27T12:36:12.363Z,46.60
2022-08-27T12:39:22.431Z,46.70
2022-08-27T12:42:29.013Z,47.30
2022-08-27T12:45:36.421Z,46.82
2022-08-27T12:48:48.276Z,46.78
2022-08-27T12:51:59.101Z,45.97
2022-08-27T12:55:16.297Z,46.04
2022-08-27T12:58:32.312Z,46.51
2022-08-27T13:01:56.025Z,45.81
2022-08-27T13:05:10.485Z,46.10
2022-08-27T13:08:30.112Z,45.24
2022-08-27T13:11:46.402Z,44.97
2022-08-27T13:14:56.992Z,45.62
2022-08-27T13:18:07.210Z,45.84
2022-08-27T13:21:19.950Z,45.95
2022-08-27T13:24:35.424Z,45.89
2022-08-27T13:27:41.684Z,45.38
2022-08-27T13:30:50.445Z,45.38
2022-08-27T13:33:59.482Z,46.02
2022-08-27T13:37:09.780Z,45.53
2022-08-27T13:40:31.785Z,45.50
2022-08-27T13:43:42.215Z,45.93
2022-08-27T13:46:51.628Z,45.65
2022-08-27T13:50:07.844Z,45.81
2022-08-27T13:53:30.544Z,45.49
2022-08-27T13:56:42.564Z,46.95
2022-08-27T13:59:50.079Z,47.19
2022-08-27T14:02:59.043Z,48.20
2022-08-27T14:06:06.466Z,48.33
2022-08-27T14:09:20.046Z,48.68
2022-08-27T14:12:35.491Z,48.82
2022-08-27T14:15:44.754Z,48.87
2022-08-27T14:18:59.210Z,49.20
2022-08-27T14:22:06.959Z,49.18
2022-08-27T14:25:13.197Z,48.97
2022-08-27T14:28:24.077Z,48.51
2022-08-27T14:31:29.965Z,49.11
2022-08-27T14:34:37.528Z,48.32
2022-08-27T14:37:45.170Z,48.66
2022-08-27T14:40:54.866Z,47.25
2022-08-27T14:44:03.854Z,47.53
2022-08-27T14:47:14.855Z,48.52
2022-08-27T14:50:21.313Z,49.30
2022-08-27T14:53:29.023Z,49.12
2022-08-27T14:56:35.054Z,49.58
2022-08-27T14:59:44.631Z,48.62
2022-08-27T15:02:52.277Z,48.55
2022-08-27T15:05:59.977Z,48.84
2022-08-27T15:09:08.059Z,48.29
2022-08-27T15:12:26.342Z,48.83
2022-08-27T15:15:35.559Z,49.34
2022-08-27T15:18:42.350Z,48.61
2022-08-27T15:22:06.460Z,48.66
2022-08-27T15:25:14.199Z,48.04
2022-08-27T15:28:20.148Z,48.07
2022-08-27T15:31:29.879Z,48.06
2022-08-27T15:34:35.888Z,48.05
2022-08-27T15:37:44.177Z,48.57
2022-08-27T15:40:50.272Z,47.51
2022-08-27T15:43:57.214Z,48.34
2022-08-27T15:47:06.520Z,48.06
2022-08-27T15:50:14.160Z,48.39
2022-08-27T15:53:25.131Z,48.03
2022-08-27T15:56:34.568Z,48.28
2022-08-27T15:59:40.769Z,48.21
2022-08-27T16:02:51.313Z,48.51
2022-08-27T16:05:57.336Z,48.71
2022-08-27T16:09:07.628Z,48.93
2022-08-27T16:12:26.900Z,48.72
2022-08-27T16:15:36.350Z,48.73
2022-08-27T16:18:46.643Z,49.07
2022-08-27T16:21:54.323Z,49.52
2022-08-27T16:25:00.820Z,50.24
2022-08-27T16:28:08.471Z,50.04
2022-08-27T16:31:16.405Z,50.42
2022-08-27T16:34:30.274Z,50.43
2022-08-27T16:37:36.234Z,50.74
2022-08-27T16:40:45.914Z,50.89
2022-08-27T16:43:52.345Z,51.05
2022-08-27T16:47:00.914Z,51.25
2022-08-27T16:50:27.199Z,51.65
2022-08-27T16:53:36.523Z,51.90
2022-08-27T16:56:43.628Z,52.19
2022-08-27T16:59:55.118Z,52.52
2022-08-27T17:03:01.221Z,53.11
2022-08-27T17:06:12.745Z,53.26
2022-08-27T17:09:18.823Z,53.62
2022-08-27T17:12:26.111Z,53.86
2022-08-27T17:15:32.555Z,54.10
2022-08-27T17:18:40.436Z,54.48
2022-08-27T17:21:50.292Z,55.11
2022-08-27T17:24:57.037Z,55.17
2022-08-27T17:28:03.379Z,55.50
2022-08-27T17:31:11.689Z,55.67
2022-08-27T17:34:20.956Z,56.64
2022-08-27T17:37:30.507Z,56.84
2022-08-27T17:40:36.679Z,56.72
2022-08-27T17:43:43.869Z,56.77
2022-08-27T17:46:50.242Z,57.22
2022-08-27T17:49:58.619Z,57.13
2022-08-27T17:53:07.561Z,56.96
2022-08-27T17:56:14.293Z,56.99
2022-08-27T17:59:20.770Z,57.22
2022-08-27T18:02:33.321Z,57.86
2022-08-27T18:05:39.177Z,57.98
2022-08-27T18:08:48.855Z,58.47
2022-08-27T18:11:56.535Z,58.28
2022-08-27T18:15:10.268Z,58.81
2022-08-27T18:18:20.531Z,58.47
2022-08-27T18:21:27.320Z,59.02
2022-08-27T18:24:37.179Z,58.72
2022-08-27T18:27:47.827Z,59.38
2022-08-27T18:30:54.280Z,59.04
2022-08-27T18:34:03.945Z,59.46
2022-08-27T18:37:10.062Z,59.04
2022-08-27T18:40:22.595Z,58.94
2022-08-27T18:43:35.177Z,58.60
2022-08-27T18:46:56.843Z,58.84
2022-08-27T18:50:03.349Z,58.91
2022-08-27T18:53:10.405Z,58.70
2022-08-27T18:56:21.862Z,59.21
2022-08-27T18:59:28.841Z,59.33
2022-08-27T19:02:36.037Z,59.91
2022-08-27T19:05:43.340Z,59.77
2022-08-27T19:08:50.171Z,60.52
2022-08-27T19:12:00.239Z,60.27
2022-08-27T19:15:09.332Z,60.05
2022-08-27T19:18:16.177Z,60.84
2022-08-27T19:21:22.102Z,62.06
2022-08-27T19:24:29.491Z,62.01
2022-08-27T19:27:39.606Z,63.07
2022-08-27T19:30:46.760Z,62.69
2022-08-27T19:33:53.116Z,63.96
2022-08-27T19:37:03.018Z,64.44
2022-08-27T19:40:10.174Z,64.58
2022-08-27T19:43:21.457Z,64.69
2022-08-27T19:46:29.266Z,64.31
2022-08-27T19:49:36.834Z,64.84
2022-08-27T19:52:42.717Z,64.50
2022-08-27T19:55:50.306Z,64.84
2022-08-27T19:59:08.734Z,64.88
2022-08-27T20:02:24.104Z,64.35
2022-08-27T20:05:30.061Z,64.02
2022-08-27T20:08:36.894Z,64.51
2022-08-27T20:11:43.493Z,64.10
2022-08-27T20:14:53.458Z,63.65
2022-08-27T20:18:03.027Z,63.91
2022-08-27T20:21:10.343Z,64.02
2022-08-27T20:24:16.700Z,64.21
2022-08-27T20:27:23.592Z,63.24
2022-08-27T20:30:34.251Z,63.17
2022-08-27T20:33:41.071Z,63.88
2022-08-27T20:36:47.027Z,63.05
2022-08-27T20:39:56.933Z,62.71
2022-08-27T20:43:03.827Z,62.57
2022-08-27T20:46:15.056Z,62.31
2022-08-27T20:49:21.789Z,62.25
2022-08-27T20:52:29.004Z,62.51
2022-08-27T20:55:35.228Z,62.32
2022-08-27T20:58:57.552Z,61.91
2022-08-27T21:02:10.724Z,62.30
2022-08-27T21:05:21.110Z,62.19
2022-08-27T21:08:27.017Z,62.14
2022-08-27T21:11:33.752Z,62.34
2022-08-27T21:14:40.083Z,62.05
2022-08-27T21:18:06.062Z,61.85
2022-08-27T21:21:15.494Z,61.54
2022-08-27T21:24:23.075Z,61.49
2022-08-27T21:27:28.998Z,61.53
2022-08-27T21:30:36.259Z,61.60
2022-08-27T21:33:45.230Z,61.94
2022-08-27T21:36:52.238Z,62.06
2022-08-27T21:39:58.234Z,62.35
2022-08-27T21:43:07.432Z,62.67
2022-08-27T21:46:13.482Z,63.02
2022-08-27T21:49:23.123Z,62.70
2022-08-27T21:52:29.066Z,62.76
2022-08-27T21:55:37.721Z,63.40
2022-08-27T21:58:44.267Z,63.31
2022-08-27T22:02:00.180Z,63.47
2022-08-27T22:05:11.852Z,63.88
2022-08-27T22:08:21.169Z,63.92
2022-08-27T22:11:27.602Z,63.88
2022-08-27T22:14:37.562Z,64.09
2022-08-27T22:17:47.144Z,64.29
2022-08-27T22:20:59.129Z,64.31
2022-08-27T22:24:06.228Z,64.48
2022-08-27T22:27:12.994Z,64.84
2022-08-27T22:30:19.233Z,65.09
2022-08-27T22:33:26.044Z,65.22
2022-08-27T22:36:35.260Z,65.28
2022-08-27T22:39:41.946Z,65.58
2022-08-27T22:42:48.507Z,65.59
2022-08-27T22:45:55.244Z,65.45
2022-08-27T22:49:01.368Z,65.14
2022-08-27T22:52:11.850Z,65.05
2022-08-27T22:55:20.414Z,65.16
2022-08-27T22:58:27.278Z,64.99
2022-08-27T23:01:33.602Z,64.97
2022-08-27T23:04:54.574Z,65.06
2022-08-27T23:08:04.221Z,64.75
2022-08-27T23:11:11.200Z,64.69
2022-08-27T23:14:17.219Z,64.58
2022-08-27T23:17:24.410Z,64.64
2022-08-27T23:20:33.131Z,64.52
2022-08-27T23:23:42.784Z,64.59
2022-08-27T23:27:04.345Z,64.84
2022-08-27T23:30:13.357Z,64.99
2022-08-27T23:33:19.274Z,65.13
2022-08-27T23:36:26.918Z,65.46
2022-08-27T23:39:35.584Z,65.67
2022-08-27T23:42:43.838Z,65.78
2022-08-27T23:45:50.460Z,65.96
2022-08-27T23:48:57.870Z,65.99
2022-08-27T23:52:03.774Z,66.20
2022-08-27T23:55:15.332Z,66.38
2022-08-27T23:58:21.361Z,66.59
